createdAt,value
2023-01-29T00:01:45.058Z,37.80
2023-01-29T00:07:52.678Z,36.30
2023-01-29T00:14:00.930Z,36.20
2023-01-29T00:20:11.571Z,36.60
2023-01-29T00:26:21.248Z,36.90
2023-01-29T00:32:35.320Z,37.50
2023-01-29T00:38:46.562Z,37.60
2023-01-29T00:45:00.564Z,36.20
2023-01-29T00:51:09.477Z,36.40
2023-01-29T00:57:19.200Z,36.70
2023-01-29T01:03:27.776Z,37.60
2023-01-29T01:10:12.187Z,37.60
2023-01-29T01:16:22.406Z,36.70
2023-01-29T01:22:37.402Z,36.60
2023-01-29T01:28:46.756Z,36.50
2023-01-29T01:34:59.789Z,36.60
2023-01-29T01:41:08.967Z,36.60
2023-01-29T01:47:20.201Z,36.60
2023-01-29T01:53:31.221Z,36.70
2023-01-29T01:59:40.343Z,36.80
2023-01-29T02:06:07.634Z,36.80
2023-01-29T02:12:15.578Z,37.00
2023-01-29T02:18:24.117Z,37.10
2023-01-29T02:25:09.147Z,37.30
2023-01-29T02:31:23.583Z,37.20
2023-01-29T02:37:40.382Z,37.30
2023-01-29T02:43:49.195Z,37.20
2023-01-29T02:50:05.681Z,36.90
2023-01-29T02:56:19.115Z,37.10
2023-01-29T03:02:34.571Z,37.10
2023-01-29T03:08:46.654Z,37.30
2023-01-29T03:15:14.039Z,37.20
2023-01-29T03:21:41.781Z,37.20
2023-01-29T03:28:10.803Z,37.80
2023-01-29T03:34:25.023Z,37.60
2023-01-29T03:40:36.632Z,37.10
2023-01-29T03:46:51.927Z,37.10
2023-01-29T03:53:03.584Z,37.20
2023-01-29T03:59:17.093Z,37.40
2023-01-29T04:05:29.956Z,37.30
2023-01-29T04:11:40.431Z,37.40
2023-01-29T04:17:51.333Z,37.20
2023-01-29T04:24:00.656Z,37.30
2023-01-29T04:30:19.065Z,37.20
2023-01-29T04:36:36.105Z,37.20
2023-01-29T04:42:47.623Z,37.30
2023-01-29T04:49:08.506Z,37.10
2023-01-29T04:55:20.583Z,37.20
2023-01-29T05:01:36.629Z,37.00
2023-01-29T05:07:44.135Z,37.00
2023-01-29T05:13:51.660Z,36.90
2023-01-29T05:20:01.097Z,36.80
2023-01-29T05:26:30.449Z,37.50
2023-01-29T05:32:41.319Z,36.80
2023-01-29T05:38:51.617Z,36.90
2023-01-29T05:45:01.031Z,36.90
2023-01-29T05:51:12.827Z,36.80
2023-01-29T05:57:23.752Z,37.00
2023-01-29T06:03:35.773Z,36.80
2023-01-29T06:09:48.556Z,36.90
2023-01-29T06:15:58.438Z,36.80
2023-01-29T06:22:09.199Z,36.60
2023-01-29T06:28:21.481Z,36.60
2023-01-29T06:34:32.680Z,36.40
2023-01-29T06:40:41.656Z,36.60
2023-01-29T06:46:51.587Z,36.50
2023-01-29T06:53:02.700Z,36.50
2023-01-29T06:59:14.605Z,36.50
2023-01-29T07:05:24.165Z,36.40
2023-01-29T07:11:33.371Z,36.50
2023-01-29T07:17:42.633Z,36.40
2023-01-29T07:23:51.615Z,36.70
2023-01-29T07:30:00.698Z,36.30
2023-01-29T07:36:14.688Z,36.40
2023-01-29T07:42:25.892Z,36.50
2023-01-29T07:48:37.064Z,36.50
2023-01-29T07:54:49.484Z,36.50
2023-01-29T08:01:00.647Z,36.70
2023-01-29T08:07:13.630Z,36.80
2023-01-29T08:13:21.071Z,36.20
2023-01-29T08:19:31.037Z,36.30
2023-01-29T08:25:43.078Z,36.50
2023-01-29T08:31:54.336Z,36.40
2023-01-29T08:38:08.519Z,36.80
2023-01-29T08:44:18.354Z,36.40
2023-01-29T08:50:29.289Z,36.20
2023-01-29T08:56:41.446Z,36.50
2023-01-29T09:02:52.021Z,36.70
2023-01-29T09:09:01.061Z,36.90
2023-01-29T09:15:11.423Z,36.40
2023-01-29T09:21:19.800Z,36.40
2023-01-29T09:27:29.702Z,36.70
2023-01-29T09:33:38.848Z,36.80
2023-01-29T09:39:48.196Z,37.00
2023-01-29T09:46:01.063Z,36.50
2023-01-29T09:52:13.149Z,36.50
2023-01-29T09:58:26.975Z,37.20
2023-01-29T10:04:54.220Z,37.00
2023-01-29T10:11:00.779Z,37.00
2023-01-29T10:17:14.437Z,36.40
2023-01-29T10:23:28.899Z,36.50
2023-01-29T10:29:39.575Z,36.70
2023-01-29T10:35:50.214Z,37.00
2023-01-29T10:42:08.253Z,37.00
2023-01-29T10:48:39.278Z,36.40
2023-01-29T10:54:56.168Z,36.50
2023-01-29T11:01:02.426Z,36.80
2023-01-29T11:07:13.343Z,37.10
2023-01-29T11:13:22.574Z,37.00
2023-01-29T11:19:42.684Z,36.40
2023-01-29T11:25:56.888Z,36.60
2023-01-29T11:32:08.397Z,36.90
2023-01-29T11:38:24.609Z,37.10
2023-01-29T11:44:38.243Z,36.80
2023-01-29T11:50:49.278Z,36.40
2023-01-29T11:56:57.920Z,36.70
2023-01-29T12:03:13.921Z,36.90
2023-01-29T12:09:22.940Z,37.10
2023-01-29T12:15:33.906Z,36.70
2023-01-29T12:21:50.724Z,36.50
2023-01-29T12:28:00.230Z,36.90
2023-01-29T12:34:12.140Z,37.10
2023-01-29T12:40:24.568Z,37.00
2023-01-29T12:46:34.395Z,37.10
2023-01-29T12:52:45.789Z,37.10
2023-01-29T12:58:55.011Z,37.10
2023-01-29T13:05:06.267Z,37.00
2023-01-29T13:11:17.213Z,37.00
2023-01-29T13:17:30.342Z,36.80
2023-01-29T13:23:40.401Z,36.50
2023-01-29T13:29:49.378Z,36.70
2023-01-29T13:36:01.210Z,37.10
2023-01-29T13:42:20.200Z,38.20
2023-01-29T13:48:30.130Z,37.30
2023-01-29T13:54:40.055Z,36.80
2023-01-29T14:00:56.961Z,37.40
2023-01-29T14:07:04.817Z,38.30
2023-01-29T14:19:54.937Z,37.00
2023-01-29T14:26:05.382Z,37.10
2023-01-29T14:32:21.267Z,37.60
2023-01-29T14:38:31.146Z,37.90
2023-01-29T14:45:03.904Z,38.90
2023-01-29T14:51:16.485Z,38.60
2023-01-29T14:57:27.229Z,38.10
2023-01-29T15:03:41.723Z,37.40
2023-01-29T15:09:54.179Z,37.70
2023-01-29T15:16:06.686Z,37.70
2023-01-29T15:22:20.563Z,38.10
2023-01-29T15:28:29.665Z,38.10
2023-01-29T15:34:43.045Z,37.10
2023-01-29T15:40:59.482Z,37.40
2023-01-29T15:47:11.018Z,37.90
2023-01-29T15:53:24.647Z,38.20
2023-01-29T15:59:41.049Z,37.30
2023-01-29T16:05:50.171Z,37.70
2023-01-29T16:12:00.761Z,37.80
2023-01-29T16:18:24.965Z,37.90
2023-01-29T16:24:40.170Z,38.40
2023-01-29T16:30:58.235Z,37.00
2023-01-29T16:37:11.144Z,37.30
2023-01-29T16:50:33.146Z,38.60
2023-01-29T16:56:43.785Z,37.30
2023-01-29T17:02:55.383Z,37.40
2023-01-29T17:09:04.403Z,37.60
2023-01-29T17:15:36.958Z,37.60
2023-01-29T17:21:47.176Z,38.10
2023-01-29T17:27:55.189Z,38.10
2023-01-29T17:34:04.550Z,36.80
2023-01-29T17:40:26.175Z,36.90
2023-01-29T17:46:35.456Z,36.80
2023-01-29T17:52:45.739Z,36.90
2023-01-29T17:58:55.413Z,37.00
2023-01-29T18:05:07.971Z,37.30
2023-01-29T18:11:17.558Z,37.10
2023-01-29T18:17:28.929Z,36.40
2023-01-29T18:23:39.685Z,36.60
2023-01-29T18:29:51.152Z,37.10
2023-01-29T18:36:05.552Z,36.60
2023-01-29T18:42:16.590Z,37.20
2023-01-29T18:48:27.353Z,36.90
2023-01-29T18:54:36.764Z,36.30
2023-01-29T19:00:51.359Z,36.30
2023-01-29T19:07:01.611Z,36.40
2023-01-29T19:13:11.385Z,36.60
2023-01-29T19:19:21.309Z,36.10
2023-01-29T19:25:31.947Z,36.20
2023-01-29T19:31:43.172Z,36.20
2023-01-29T19:37:50.799Z,36.40
2023-01-29T19:44:01.144Z,37.20
2023-01-29T19:50:09.930Z,36.50
2023-01-29T19:56:21.379Z,35.90
2023-01-29T20:02:33.240Z,36.00
2023-01-29T20:08:47.298Z,36.10
2023-01-29T20:14:55.044Z,36.20
2023-01-29T20:21:05.849Z,36.50
2023-01-29T20:27:16.033Z,35.80
2023-01-29T20:33:24.359Z,35.80
2023-01-29T20:39:34.986Z,35.90
2023-01-29T20:45:48.971Z,36.30
2023-01-29T20:51:58.662Z,36.20
2023-01-29T20:58:09.187Z,35.80
2023-01-29T21:04:21.965Z,35.70
2023-01-29T21:10:33.695Z,35.80
2023-01-29T21:16:43.825Z,36.00
2023-01-29T21:22:51.420Z,36.20
2023-01-29T21:29:03.379Z,36.10
2023-01-29T21:35:17.131Z,35.70
2023-01-29T21:41:46.607Z,35.60
2023-01-29T21:47:55.954Z,35.80
2023-01-29T21:54:07.185Z,36.10
2023-01-29T22:00:22.250Z,36.20
2023-01-29T22:06:33.513Z,36.10
2023-01-29T22:12:46.193Z,35.70
2023-01-29T22:18:54.149Z,35.60
2023-01-29T22:25:07.066Z,35.90
2023-01-29T22:31:17.130Z,36.60
2023-01-29T22:37:26.077Z,36.10
2023-01-29T22:43:35.291Z,36.40
2023-01-29T22:49:43.777Z,35.50
2023-01-29T22:55:58.202Z,35.80
2023-01-29T23:02:10.505Z,36.10
2023-01-29T23:08:21.801Z,36.00
2023-01-29T23:14:31.812Z,35.50
2023-01-29T23:20:40.802Z,35.40
2023-01-29T23:27:06.945Z,35.70
2023-01-29T23:33:17.765Z,35.90
2023-01-29T23:39:25.914Z,35.80
2023-01-29T23:45:36.159Z,35.60
2023-01-29T23:51:44.962Z,35.30
2023-01-29T23:57:56.120Z,35.60
